Observations for LEVALDIGI, Italy (LIMZ)

LIMZ 180650Z 03004KT 360V060 CAVOK 22/15 Q1018  
LIMZ 180550Z 24003KT 210V320 9999 FEW025 20/15 Q1017
LIMZ 180500Z 22002KT 9999 FEW025 16/14 Q1017
LIMZ 171850Z 01002KT CAVOK 25/15 Q1016  
LIMZ 171750Z 34003KT CAVOK 27/14 Q1015  
LIMZ 171650Z 33005KT 300V360 CAVOK 28/12 Q1016  
LIMZ 171550Z 34003KT 270V030 CAVOK 28/11 Q1016  
LIMZ 171450Z 33008KT CAVOK 29/12 Q1016  
LIMZ 171350Z 35006KT 290V080 CAVOK 29/12 Q1016  
LIMZ 171250Z 32006KT CAVOK 28/11 Q1017  
LIMZ 171150Z 35007KT 300V060 CAVOK 27/12 Q1017  
LIMZ 171050Z 34006KT CAVOK 27/12 Q1018  
LIMZ 170950Z 35007KT CAVOK 26/11 Q1018  
LIMZ 170850Z 02006KT 340V050 CAVOK 25/12 Q1018  
LIMZ 170750Z 01004KT CAVOK 24/11 Q1018  
LIMZ 170650Z VRB01KT CAVOK 24/13 Q1017